Time;durP1;ratioP1;P1;durP2;ratioP2;P2;SDS_P1;SDS_P2;PMS_P1;PMS_P2;Temp;Humidity;BMP_temperature;BMP_pressure;BME280_temperature;BME280_humidity;BME280_pressure;Samples;Min_cycle;Max_cycle;Signal;HPM_P1;HPM_P2
2021/03/25 00:01:16;;;;;;;4.78;2.70;;;;;;;5.26;58.98;96235.13;4994908;28;20531;-48
2021/03/25 00:03:45;;;;;;;5.65;3.53;;;;;;;5.12;59.18;96231.59;4996244;28;20057;-52
2021/03/25 00:06:13;;;;;;;4.70;2.38;;;;;;;4.90;59.78;96230.25;4996628;28;20093;-52
2021/03/25 00:08:39;;;;;;;6.47;3.00;;;;;;;4.84;60.23;96220.69;5007069;28;20054;-50
2021/03/25 00:11:06;;;;;;;5.93;2.70;;;;;;;4.90;59.67;96229.47;4996044;28;20065;-52
2021/03/25 00:13:32;;;;;;;4.15;2.10;;;;;;;4.96;59.53;96227.50;4996192;28;20050;-53
2021/03/25 00:15:59;;;;;;;5.03;2.10;;;;;;;4.89;59.84;96228.66;4995007;28;20047;-51
2021/03/25 00:18:26;;;;;;;5.18;2.20;;;;;;;4.98;58.98;96215.41;5015320;28;20506;-48
2021/03/25 00:20:53;;;;;;;4.03;2.03;;;;;;;4.95;59.18;96216.00;5015651;28;20412;-50
2021/03/25 00:23:20;;;;;;;4.35;2.03;;;;;;;4.98;58.90;96211.94;5015459;28;20046;-52
2021/03/25 00:25:46;;;;;;;3.95;2.25;;;;;;;5.02;59.29;96213.75;5015195;28;20103;-50
2021/03/25 00:28:15;;;;;;;8.00;3.40;;;;;;;5.02;58.72;96210.28;5000144;28;20749;-50
2021/03/25 00:30:42;;;;;;;4.03;2.35;;;;;;;4.95;58.85;96216.00;4995635;28;20053;-50
2021/03/25 00:33:13;;;;;;;4.90;2.20;;;;;;;4.91;58.88;96209.63;4995574;28;20046;-49
2021/03/25 00:35:41;;;;;;;3.63;1.85;;;;;;;4.85;58.93;96208.88;4995546;28;20054;-53
2021/03/25 00:38:09;;;;;;;4.95;2.05;;;;;;;4.85;59.32;96202.72;5006900;28;20519;-51
2021/03/25 00:40:43;;;;;;;7.53;2.53;;;;;;;4.84;58.96;96201.94;5014966;28;20058;-50
2021/03/25 00:43:12;;;;;;;5.78;2.20;;;;;;;4.77;59.35;96203.34;5014825;28;20372;-53
2021/03/25 00:45:42;;;;;;;3.92;2.05;;;;;;;4.85;58.87;96200.06;5013948;28;20108;-49
2021/03/25 00:48:16;;;;;;;3.87;1.77;;;;;;;4.78;59.35;96196.94;4999646;28;20062;-49
2021/03/25 00:50:47;;;;;;;2.30;1.42;;;;;;;4.74;59.33;96194.00;4994932;28;20290;-49
2021/03/25 00:53:21;;;;;;;3.30;1.88;;;;;;;4.71;59.17;96193.78;4994791;28;20047;-49
2021/03/25 00:55:48;;;;;;;4.97;1.70;;;;;;;4.68;59.44;96189.81;5013321;28;20053;-50
2021/03/25 00:58:14;;;;;;;3.22;1.90;;;;;;;4.66;59.64;96186.63;5013490;28;20522;-52
2021/03/25 01:00:43;;;;;;;4.15;1.80;;;;;;;4.64;59.49;96200.28;5020410;28;20046;-49
2021/03/25 01:03:12;;;;;;;6.82;1.90;;;;;;;4.68;59.55;96190.63;5012891;28;20052;-54
2021/03/25 01:05:40;;;;;;;4.13;1.80;;;;;;;4.59;60.00;96186.97;4999331;28;20133;-52
2021/03/25 01:08:07;;;;;;;4.07;1.70;;;;;;;4.70;59.46;96182.28;4993873;28;20054;-50
2021/03/25 01:10:44;;;;;;;3.55;1.70;;;;;;;4.74;59.07;96182.50;4994514;28;20054;-49
2021/03/25 01:13:32;;;;;;;3.75;1.90;;;;;;;4.63;59.66;96184.50;4994666;28;20089;-50
2021/03/25 01:16:00;;;;;;;3.22;1.60;;;;;;;4.58;60.04;96180.03;4994304;28;20080;-51
2021/03/25 01:18:28;;;;;;;6.28;2.10;;;;;;;4.56;59.56;96178.72;4992852;28;20061;-49
2021/03/25 01:20:56;;;;;;;4.18;1.73;;;;;;;4.57;59.79;96181.09;4994488;28;20133;-48
2021/03/25 01:23:23;;;;;;;4.00;2.05;;;;;;;4.49;60.00;96175.59;4995426;28;20069;-49
2021/03/25 01:25:49;;;;;;;3.03;1.80;;;;;;;4.51;60.06;96178.75;4994542;28;20134;-49
2021/03/25 01:28:18;;;;;;;3.67;1.73;;;;;;;4.37;60.02;96165.28;4993688;28;20074;-49
2021/03/25 01:30:49;;;;;;;2.95;1.73;;;;;;;4.32;60.31;96176.03;5009394;28;20149;-52
2021/03/25 01:33:19;;;;;;;3.80;1.73;;;;;;;4.45;59.82;96169.97;4994319;28;20420;-52
2021/03/25 01:35:48;;;;;;;4.32;1.95;;;;;;;4.39;60.02;96165.81;5011451;28;20050;-51
2021/03/25 01:38:19;;;;;;;3.08;1.48;;;;;;;4.44;59.99;96169.19;5000880;28;20046;-48
2021/03/25 01:40:53;;;;;;;3.67;1.70;;;;;;;4.40;60.13;96172.75;4993805;28;20047;-50
2021/03/25 01:43:27;;;;;;;3.35;1.70;;;;;;;4.49;59.56;96172.91;4995729;28;20081;-49
2021/03/25 01:46:18;;;;;;;5.00;1.77;;;;;;;4.39;60.23;96169.28;4998231;28;20060;-49
2021/03/25 01:48:50;;;;;;;3.95;1.65;;;;;;;4.37;59.96;96162.59;4993476;28;20046;-49
2021/03/25 01:51:31;;;;;;;4.55;1.92;;;;;;;4.29;60.36;96160.53;5008972;28;20042;-50
2021/03/25 01:54:35;;;;;;;2.53;1.60;;;;;;;4.22;60.30;96164.38;4993806;28;20462;-48
2021/03/25 01:57:27;;;;;;;3.13;1.50;;;;;;;4.21;60.91;96167.34;4995955;28;20050;-50
2021/03/25 02:00:00;;;;;;;2.45;1.58;;;;;;;4.18;60.72;96170.56;5008863;28;20057;-48
2021/03/25 02:02:35;;;;;;;4.70;1.55;;;;;;;4.33;60.26;96169.63;4993582;28;20052;-51
2021/03/25 02:05:26;;;;;;;3.38;1.55;;;;;;;4.32;60.44;96168.00;4996146;28;20598;-48
2021/03/25 02:08:33;;;;;;;2.55;1.40;;;;;;;4.21;60.71;96153.94;5006939;28;20062;-51
2021/03/25 02:11:13;;;;;;;2.83;1.40;;;;;;;4.10;61.44;96174.69;4951329;28;20062;-49
2021/03/25 02:13:45;;;;;;;2.85;1.60;;;;;;;4.18;60.87;96165.22;5008891;28;20474;-49
2021/03/25 02:16:25;;;;;;;2.55;1.48;;;;;;;4.10;61.13;96157.84;5008256;28;20396;-54
2021/03/25 02:19:21;;;;;;;3.38;1.73;;;;;;;4.10;61.16;96157.84;4994798;28;20133;-53
2021/03/25 02:22:25;;;;;;;3.88;1.88;;;;;;;4.01;61.47;96154.19;5008460;28;20133;-51
2021/03/25 02:25:09;;;;;;;3.28;1.55;;;;;;;3.95;61.57;96156.91;5019686;28;20058;-49
2021/03/25 02:28:26;;;;;;;3.63;1.40;;;;;;;3.97;61.68;96157.41;5010746;28;20050;-48
2021/03/25 02:31:17;;;;;;;3.40;1.50;;;;;;;4.04;61.49;96150.94;4944258;28;20050;-49
2021/03/25 02:33:51;;;;;;;3.42;1.60;;;;;;;3.96;61.32;96153.16;5006963;28;20054;-53
2021/03/25 02:36:30;;;;;;;2.45;1.50;;;;;;;3.94;61.69;96159.88;4991093;28;20081;-50
2021/03/25 02:39:03;;;;;;;3.67;1.77;;;;;;;4.00;61.25;96153.38;5008566;28;20066;-52
2021/03/25 02:41:36;;;;;;;3.22;1.63;;;;;;;4.17;60.92;96153.72;5011061;28;20065;-53
2021/03/25 02:44:11;;;;;;;4.95;2.17;;;;;;;3.93;61.78;96148.38;5012039;28;20064;-50
2021/03/25 02:46:46;;;;;;;4.22;1.70;;;;;;;3.89;61.54;96147.31;5011268;28;20411;-50
2021/03/25 02:49:18;;;;;;;2.58;1.38;;;;;;;3.96;61.33;96158.50;4991421;28;20055;-50
2021/03/25 02:52:03;;;;;;;3.63;1.40;;;;;;;3.96;61.28;96152.34;4992431;28;20479;-50
2021/03/25 02:54:34;;;;;;;4.68;1.83;;;;;;;4.03;61.26;96149.31;5007753;28;20078;-50
2021/03/25 02:57:31;;;;;;;3.83;1.60;;;;;;;3.93;61.27;96151.06;4990344;28;20062;-49
2021/03/25 03:00:04;;;;;;;6.28;1.70;;;;;;;3.93;61.47;96153.72;4991188;28;20539;-53
2021/03/25 03:02:46;;;;;;;5.20;2.03;;;;;;;3.92;61.12;96152.13;5007180;28;20461;-50
2021/03/25 03:05:36;;;;;;;3.90;1.95;;;;;;;3.92;61.24;96152.13;4992139;28;20050;-51
2021/03/25 03:08:20;;;;;;;4.05;1.70;;;;;;;3.88;61.48;96148.41;5006466;28;20046;-51
2021/03/25 03:10:56;;;;;;;3.00;1.50;;;;;;;3.91;60.76;96147.84;4991373;28;20062;-52
2021/03/25 03:13:27;;;;;;;4.10;1.80;;;;;;;3.89;61.13;96144.66;4991335;28;20038;-50
2021/03/25 03:16:02;;;;;;;4.70;1.40;;;;;;;3.86;61.97;96150.56;4990902;28;20046;-51
2021/03/25 03:18:50;;;;;;;4.88;1.80;;;;;;;3.88;61.05;96148.41;4990173;28;20073;-47
2021/03/25 03:21:32;;;;;;;4.93;1.70;;;;;;;3.99;60.64;96147.22;4992352;28;20046;-48
2021/03/25 03:24:21;;;;;;;4.13;1.40;;;;;;;3.92;60.91;96159.34;5006574;28;20042;-53
2021/03/25 03:27:16;;;;;;;2.45;1.30;;;;;;;4.10;60.42;96153.28;4991384;28;20109;-51
2021/03/25 03:29:46;;;;;;;4.90;1.92;;;;;;;4.03;60.43;96146.66;5007355;28;20503;-59
2021/03/25 03:32:48;;;;;;;2.45;1.38;;;;;;;3.97;60.98;96144.03;5007047;28;20047;-50
2021/03/25 03:35:51;;;;;;;3.63;2.00;;;;;;;3.98;60.70;96136.81;4992618;28;20047;-53
2021/03/25 03:38:26;;;;;;;2.50;1.45;;;;;;;3.97;60.35;96137.91;5001673;28;20045;-50
2021/03/25 03:41:08;;;;;;;2.85;1.65;;;;;;;3.95;60.58;96140.03;5011845;28;20054;-49
2021/03/25 03:43:37;;;;;;;3.55;1.73;;;;;;;3.96;60.40;96134.41;5011515;28;20048;-51
2021/03/25 03:46:11;;;;;;;3.60;1.50;;;;;;;4.04;60.29;96129.50;5006884;28;20057;-52
2021/03/25 03:48:42;;;;;;;4.25;1.65;;;;;;;3.99;60.29;96133.03;5009469;28;20054;-48
2021/03/25 03:51:16;;;;;;;4.53;1.77;;;;;;;3.94;60.24;96133.09;5010311;28;20046;-50
2021/03/25 03:53:43;;;;;;;5.10;1.88;;;;;;;3.89;60.22;96139.28;5003201;28;20047;-51
2021/03/25 03:56:17;;;;;;;2.97;1.50;;;;;;;3.93;60.23;96136.84;4990524;28;20059;-51
2021/03/25 03:58:47;;;;;;;4.50;1.88;;;;;;;3.98;60.19;96134.91;5006219;28;20058;-49
2021/03/25 04:01:40;;;;;;;4.63;1.90;;;;;;;3.96;59.99;96137.09;4991155;28;20046;-52
2021/03/25 04:04:19;;;;;;;4.00;1.75;;;;;;;3.93;60.19;96134.16;4989226;28;20050;-53
2021/03/25 04:07:22;;;;;;;4.80;1.67;;;;;;;3.98;59.85;96140.28;4986458;28;20392;-52
2021/03/25 04:10:27;;;;;;;4.40;1.80;;;;;;;3.91;60.52;96137.13;4991655;28;20161;-50
2021/03/25 04:13:25;;;;;;;4.22;1.75;;;;;;;3.84;60.73;96150.06;4990799;28;20058;-48
2021/03/25 04:15:53;;;;;;;6.63;2.17;;;;;;;3.92;60.27;96149.44;4990727;28;20420;-50
2021/03/25 04:18:34;;;;;;;4.72;1.98;;;;;;;3.85;60.69;96140.94;4991891;28;20458;-51
2021/03/25 04:21:25;;;;;;;5.13;1.77;;;;;;;3.77;60.85;96141.59;4992677;28;20064;-50
2021/03/25 04:23:54;;;;;;;5.15;2.08;;;;;;;3.82;60.72;96144.19;4992060;28;20126;-50
2021/03/25 04:26:25;;;;;;;3.28;1.52;;;;;;;3.79;60.83;96138.63;4991775;28;20065;-49
2021/03/25 04:29:04;;;;;;;4.30;2.00;;;;;;;3.82;60.72;96141.50;4991731;28;20054;-48
2021/03/25 04:31:32;;;;;;;4.55;2.10;;;;;;;3.81;60.57;96147.16;4991927;28;20058;-49
2021/03/25 04:34:03;;;;;;;6.47;2.42;;;;;;;3.81;60.24;96144.50;4991731;28;20042;-52
2021/03/25 04:36:36;;;;;;;5.15;1.83;;;;;;;3.79;60.64;96150.09;4991771;28;20405;-51
2021/03/25 04:39:06;;;;;;;4.97;2.00;;;;;;;3.76;60.93;96142.66;5005985;28;20054;-53
2021/03/25 04:41:35;;;;;;;2.90;1.75;;;;;;;3.68;60.54;96140.59;5015143;28;20061;-54
2021/03/25 04:44:06;;;;;;;4.47;1.88;;;;;;;3.67;60.72;96145.16;5014818;28;20057;-49
2021/03/25 04:47:07;;;;;;;3.72;1.70;;;;;;;3.75;60.59;96146.41;5014134;28;20046;-50
2021/03/25 04:49:39;;;;;;;3.72;1.55;;;;;;;3.74;60.39;96145.63;4993702;28;20058;-51
2021/03/25 04:52:14;;;;;;;5.32;1.88;;;;;;;3.68;60.50;96143.28;4994758;28;20046;-52
2021/03/25 04:54:41;;;;;;;5.25;2.25;;;;;;;3.66;60.56;96143.53;4994969;28;20145;-50
2021/03/25 04:57:31;;;;;;;3.38;1.58;;;;;;;3.66;60.75;96150.78;4994810;28;20053;-53
2021/03/25 05:00:04;;;;;;;4.75;1.77;;;;;;;3.67;60.71;96147.00;4994805;28;20054;-51
2021/03/25 05:02:34;;;;;;;3.30;1.60;;;;;;;3.65;60.79;96152.66;5010559;28;20065;-50
2021/03/25 05:05:03;;;;;;;5.22;1.70;;;;;;;3.65;60.84;96157.22;4998818;28;20091;-51
2021/03/25 05:07:34;;;;;;;7.50;2.20;;;;;;;3.77;60.31;96148.78;4994423;28;20054;-50
2021/03/25 05:10:03;;;;;;;5.13;1.75;;;;;;;3.69;60.76;96142.19;4995104;28;20066;-48
2021/03/25 05:12:30;;;;;;;3.78;1.88;;;;;;;3.69;60.50;96136.84;5009752;28;20120;-48
2021/03/25 05:15:08;;;;;;;5.40;2.03;;;;;;;3.72;60.34;96152.31;4994975;28;20054;-49
2021/03/25 05:18:21;;;;;;;7.93;2.42;;;;;;;3.80;60.18;96151.69;4994258;28;20054;-49
2021/03/25 05:21:09;;;;;;;4.97;1.90;;;;;;;3.84;60.42;96150.06;4994858;28;20051;-49
2021/03/25 05:23:50;;;;;;;7.18;2.60;;;;;;;3.79;60.01;96152.78;4994435;28;20100;-48
2021/03/25 05:26:28;;;;;;;7.72;2.90;;;;;;;3.82;59.79;96159.47;4994441;28;20062;-49
2021/03/25 05:29:00;;;;;;;6.47;2.58;;;;;;;3.92;60.28;96154.78;4994775;28;20065;-50
2021/03/25 05:31:28;;;;;;;7.88;2.90;;;;;;;3.88;59.60;96158.31;4994676;28;20105;-51
2021/03/25 05:34:01;;;;;;;13.63;3.35;;;;;;;4.04;59.13;96159.75;4994406;28;20057;-48
2021/03/25 05:36:29;;;;;;;10.85;3.63;;;;;;;4.07;58.66;96148.47;4993937;28;20061;-48
2021/03/25 05:38:57;;;;;;;14.02;4.00;;;;;;;4.22;58.21;96142.97;5007032;28;20041;-52
2021/03/25 05:41:40;;;;;;;8.25;3.42;;;;;;;3.99;58.68;96159.81;5014152;28;20046;-47
2021/03/25 05:44:53;;;;;;;9.45;3.65;;;;;;;4.20;58.47;96155.81;5015473;28;20577;-51
2021/03/25 05:47:39;;;;;;;7.20;2.80;;;;;;;4.35;57.71;96154.03;5002014;28;20137;-48
2021/03/25 05:50:11;;;;;;;5.90;3.13;;;;;;;4.45;57.57;96154.72;5013734;28;20057;-48
2021/03/25 05:53:03;;;;;;;10.15;5.43;;;;;;;4.41;56.99;96152.91;5013642;28;20069;-49
2021/03/25 05:55:51;;;;;;;10.27;5.30;;;;;;;4.46;56.92;96155.53;4982958;28;20124;-48
2021/03/25 05:58:29;;;;;;;14.63;5.75;;;;;;;4.62;56.87;96159.59;5013081;28;20054;-48
2021/03/25 06:01:18;;;;;;;8.10;4.65;;;;;;;4.73;56.54;96162.94;5013319;28;20471;-48
2021/03/25 06:04:23;;;;;;;10.00;4.15;;;;;;;5.10;55.15;96161.34;4998443;28;20047;-49
2021/03/25 06:06:55;;;;;;;6.15;3.10;;;;;;;5.03;55.43;96158.22;5008281;28;20145;-51
2021/03/25 06:09:24;;;;;;;5.03;2.58;;;;;;;5.00;54.67;96161.47;5009952;28;20061;-52
2021/03/25 06:11:55;;;;;;;4.10;2.45;;;;;;;5.00;54.65;96158.81;5013490;28;20057;-52
2021/03/25 06:14:42;;;;;;;5.85;2.83;;;;;;;5.05;54.54;96162.22;5013181;28;20061;-52
2021/03/25 06:17:20;;;;;;;5.15;2.28;;;;;;;5.19;54.23;96164.16;5008168;28;20054;-52
2021/03/25 06:20:20;;;;;;;5.30;2.40;;;;;;;5.18;54.17;96160.69;4993595;28;20097;-49
2021/03/25 06:22:46;;;;;;;3.92;2.10;;;;;;;5.20;54.06;96163.88;4993879;28;20054;-53
2021/03/25 06:25:38;;;;;;;5.55;2.30;;;;;;;5.35;54.19;96171.66;4993093;28;20422;-47
2021/03/25 06:28:10;;;;;;;4.93;2.00;;;;;;;5.39;53.75;96167.34;4993228;28;20056;-50
2021/03/25 06:30:59;;;;;;;7.22;2.10;;;;;;;5.55;53.18;96177.81;4993851;28;20054;-50
2021/03/25 06:33:40;;;;;;;5.00;2.20;;;;;;;5.43;53.21;96175.59;5010122;28;20061;-50
2021/03/25 06:36:12;;;;;;;4.10;2.30;;;;;;;5.58;53.22;96177.22;5012408;28;20090;-51
2021/03/25 06:38:55;;;;;;;5.32;1.80;;;;;;;5.76;52.77;96180.97;5010071;28;20104;-49
2021/03/25 06:41:34;;;;;;;;;;;;;;;5.77;52.34;96183.34;4998191;28;20048;-49
2021/03/25 06:44:07;;;;;;;3.95;2.13;;;;;;;5.85;51.99;96176.50;5011850;28;20310;-48
2021/03/25 06:46:38;;;;;;;5.63;1.95;;;;;;;6.02;51.59;96178.66;5006750;28;20045;-49
2021/03/25 06:49:29;;;;;;;5.15;2.00;;;;;;;6.13;51.46;96190.00;5012249;28;20054;-56
2021/03/25 06:52:13;;;;;;;6.25;2.25;;;;;;;6.42;50.79;96187.03;5012312;28;20128;-49
2021/03/25 06:54:39;;;;;;;;;;;;;;;7.05;49.16;96188.13;5011207;28;20464;-51
2021/03/25 06:57:15;;;;;;;7.03;2.55;;;;;;;7.75;46.30;96198.34;4992740;28;19928;-49
2021/03/25 06:59:43;;;;;;;7.53;1.90;;;;;;;7.36;47.22;96190.94;4992005;28;20054;-51
2021/03/25 07:02:09;;;;;;;6.53;2.00;;;;;;;6.99;48.02;96196.31;4993153;28;20385;-48
2021/03/25 07:04:41;;;;;;;4.35;2.08;;;;;;;7.10;48.27;96202.28;4991259;28;20050;-51
2021/03/25 07:07:17;;;;;;;7.30;1.92;;;;;;;7.17;48.38;96193.78;4992217;28;20061;-52
2021/03/25 07:09:44;;;;;;;5.10;2.10;;;;;;;7.22;47.31;96205.22;4992579;28;20054;-52
2021/03/25 07:12:21;;;;;;;5.05;1.92;;;;;;;7.31;47.49;96207.97;4992549;28;20426;-52
2021/03/25 07:14:50;;;;;;;4.78;2.00;;;;;;;7.47;47.17;96208.41;4992515;28;20054;-54
2021/03/25 07:17:41;;;;;;;5.88;1.67;;;;;;;7.32;47.19;96216.88;4992166;28;20050;-53
2021/03/25 07:20:25;;;;;;;7.07;2.10;;;;;;;7.55;46.72;96210.41;4992597;28;20050;-50
2021/03/25 07:23:08;;;;;;;5.65;1.92;;;;;;;7.75;46.55;96209.09;4992362;28;20844;-49
2021/03/25 07:25:47;;;;;;;3.65;2.33;;;;;;;7.85;46.24;96211.53;4992122;28;20499;-53
2021/03/25 07:28:21;;;;;;;5.22;2.10;;;;;;;7.85;45.93;96210.75;5006780;28;20054;-53
2021/03/25 07:30:49;;;;;;;4.57;1.77;;;;;;;7.91;45.36;96215.72;4994854;28;20077;-52
2021/03/25 07:33:22;;;;;;;4.63;1.83;;;;;;;7.96;44.92;96217.47;5008409;28;20038;-52
2021/03/25 07:36:07;;;;;;;5.10;2.50;;;;;;;7.96;45.24;96217.47;5008264;28;20060;-50
2021/03/25 07:38:37;;;;;;;4.63;1.60;;;;;;;8.55;43.60;96203.84;4996788;28;20061;-51
2021/03/25 07:41:21;;;;;;;5.13;2.45;;;;;;;9.11;42.19;96208.41;4992209;28;20065;-50
2021/03/25 07:43:50;;;;;;;6.53;2.05;;;;;;;8.54;42.99;96211.13;5009395;28;20137;-52
2021/03/25 07:46:43;;;;;;;8.88;2.10;;;;;;;8.53;43.17;96206.03;5004199;28;20050;-49
2021/03/25 07:49:09;;;;;;;5.00;1.98;;;;;;;8.73;42.88;96223.56;5008683;28;20081;-52
2021/03/25 07:51:44;;;;;;;3.70;1.80;;;;;;;8.76;42.57;96212.94;5012124;28;20423;-49
2021/03/25 07:54:24;;;;;;;7.18;2.35;;;;;;;8.91;41.90;96213.63;4999026;28;20108;-50
2021/03/25 07:57:03;;;;;;;4.72;2.10;;;;;;;9.00;42.01;96223.31;5010742;28;20046;-49
2021/03/25 07:59:40;;;;;;;7.20;2.40;;;;;;;9.11;41.50;96216.50;5010202;28;20132;-56
2021/03/25 08:02:31;;;;;;;5.82;2.60;;;;;;;9.31;40.71;96219.69;5004998;28;20104;-48
2021/03/25 08:05:24;;;;;;;7.55;2.83;;;;;;;9.58;40.22;96213.19;5011101;28;20045;-54
2021/03/25 08:07:53;;;;;;;7.40;2.30;;;;;;;9.43;40.52;96214.47;5001242;28;20107;-52
2021/03/25 08:10:41;;;;;;;9.85;2.80;;;;;;;9.55;40.24;96217.34;5011565;28;20045;-53
2021/03/25 08:13:08;;;;;;;7.93;3.47;;;;;;;9.52;40.30;96223.38;5013622;28;20054;-49
2021/03/25 08:15:39;;;;;;;8.98;2.53;;;;;;;9.70;39.92;96216.03;5014838;28;20057;-55
2021/03/25 08:18:15;;;;;;;9.05;3.08;;;;;;;9.93;40.06;96221.28;5008098;28;20053;-50
2021/03/25 08:20:53;;;;;;;8.57;4.15;;;;;;;9.77;40.42;96219.06;5015478;28;20522;-51
2021/03/25 08:23:38;;;;;;;11.77;4.05;;;;;;;9.90;40.30;96216.50;5026727;28;20049;-51
2021/03/25 08:26:16;;;;;;;13.43;4.60;;;;;;;9.86;40.39;96216.34;5023487;28;20126;-52
2021/03/25 08:28:48;;;;;;;10.20;3.90;;;;;;;10.01;40.28;96221.25;5007964;28;20049;-53
2021/03/25 08:31:32;;;;;;;11.70;5.05;;;;;;;10.05;40.32;96216.78;5016642;28;20053;-54
2021/03/25 08:34:12;;;;;;;12.48;4.07;;;;;;;10.07;40.28;96222.69;5012325;28;20119;-48
2021/03/25 08:37:16;;;;;;;12.05;4.20;;;;;;;10.10;40.19;96221.22;5029299;28;20641;-48
2021/03/25 08:39:57;;;;;;;13.82;5.45;;;;;;;10.33;40.05;96223.75;5016989;28;20499;-49
2021/03/25 08:42:27;;;;;;;10.07;4.72;;;;;;;10.39;39.92;96219.75;5020738;28;20116;-51
2021/03/25 08:44:56;;;;;;;10.82;4.75;;;;;;;10.37;40.21;96222.78;5013720;28;20042;-51
2021/03/25 08:47:41;;;;;;;11.55;5.43;;;;;;;10.69;39.63;96218.69;5016405;28;20257;-53
2021/03/25 08:50:17;;;;;;;10.98;4.60;;;;;;;10.70;39.59;96222.19;5029167;28;20107;-52
2021/03/25 08:52:44;;;;;;;9.82;4.75;;;;;;;10.69;39.23;96212.47;5018460;28;20556;-54
2021/03/25 08:55:26;;;;;;;11.13;6.35;;;;;;;10.84;39.36;96224.66;5021857;28;20061;-50
2021/03/25 08:58:02;;;;;;;8.35;4.47;;;;;;;10.91;38.88;96220.31;5007247;28;20111;-49
2021/03/25 09:00:33;;;;;;;8.32;4.32;;;;;;;10.90;39.28;96213.31;5015632;28;20124;-47
2021/03/25 09:03:10;;;;;;;13.35;5.43;;;;;;;11.20;38.65;96208.66;5012380;28;20054;-49
2021/03/25 09:05:41;;;;;;;11.27;5.30;;;;;;;11.48;37.71;96212.78;5011500;28;20099;-49
2021/03/25 09:08:18;;;;;;;11.55;5.28;;;;;;;11.35;38.12;96215.41;5012763;28;20062;-52
2021/03/25 09:10:55;;;;;;;11.68;5.85;;;;;;;11.35;37.64;96207.28;5009984;28;20073;-51
2021/03/25 09:13:31;;;;;;;13.80;6.32;;;;;;;11.46;37.57;96205.75;5022719;28;20131;-49
2021/03/25 09:16:05;;;;;;;15.25;6.70;;;;;;;11.68;37.36;96209.25;5016799;28;20046;-48
2021/03/25 09:18:33;;;;;;;10.80;5.65;;;;;;;11.69;37.14;96206.19;5019222;28;20050;-51
2021/03/25 09:21:18;;;;;;;11.10;5.50;;;;;;;11.52;37.45;96209.06;5026028;28;20100;-49
2021/03/25 09:24:01;;;;;;;12.25;6.68;;;;;;;11.83;36.65;96210.53;5015542;28;20499;-53
2021/03/25 09:26:30;;;;;;;11.48;6.38;;;;;;;11.86;36.41;96202.59;5002828;28;20058;-50
2021/03/25 09:28:59;;;;;;;13.27;6.97;;;;;;;11.92;36.13;96206.66;5018405;28;20144;-51
2021/03/25 09:31:35;;;;;;;13.85;6.80;;;;;;;11.88;36.23;96204.97;5018733;28;20471;-47
2021/03/25 09:34:12;;;;;;;13.20;6.25;;;;;;;12.05;36.22;96204.78;5007676;28;20574;-49
2021/03/25 09:36:44;;;;;;;13.43;6.70;;;;;;;11.99;36.32;96205.31;5017059;28;20405;-48
2021/03/25 09:39:22;;;;;;;12.10;7.35;;;;;;;12.01;36.19;96203.88;5003230;28;20061;-51
2021/03/25 09:41:50;;;;;;;14.80;7.38;;;;;;;12.17;35.49;96201.31;5026069;28;20503;-52
2021/03/25 09:44:33;;;;;;;15.75;6.97;;;;;;;12.16;35.84;96203.25;5015689;28;20125;-51
2021/03/25 09:47:00;;;;;;;12.80;7.90;;;;;;;12.30;35.07;96200.22;5016131;28;20136;-53
2021/03/25 09:49:38;;;;;;;14.05;8.07;;;;;;;12.31;34.69;96207.22;5023933;28;20042;-53
2021/03/25 09:52:08;;;;;;;16.55;7.50;;;;;;;12.39;34.13;96198.19;5027851;28;20057;-48
2021/03/25 09:54:54;;;;;;;17.83;7.20;;;;;;;12.27;34.53;96200.88;5012474;28;20045;-47
2021/03/25 09:57:28;;;;;;;13.18;7.32;;;;;;;12.37;34.34;96200.44;5005176;28;20124;-49
2021/03/25 10:00:05;;;;;;;12.03;7.13;;;;;;;12.28;34.40;96205.19;5015443;28;20160;-47
2021/03/25 10:02:45;;;;;;;13.05;7.10;;;;;;;12.24;34.07;96198.84;5023751;28;20329;-49
2021/03/25 10:05:24;;;;;;;14.85;7.97;;;;;;;12.39;33.77;96198.19;5018748;28;20577;-48
2021/03/25 10:07:55;;;;;;;15.10;8.32;;;;;;;12.50;33.79;96189.63;5009618;28;20060;-51
2021/03/25 10:10:34;;;;;;;22.10;12.02;;;;;;;12.89;33.73;96187.34;5005794;28;20108;-51
2021/03/25 10:13:00;;;;;;;15.38;8.02;;;;;;;12.76;33.83;96184.63;5010358;28;20120;-52
2021/03/25 10:15:33;;;;;;;11.95;6.85;;;;;;;13.01;33.55;96188.13;5012022;28;20144;-50
2021/03/25 10:18:16;;;;;;;14.43;7.90;;;;;;;13.29;32.95;96190.16;5002451;28;20049;-49
2021/03/25 10:20:59;;;;;;;12.73;7.17;;;;;;;12.91;33.26;96188.59;5010916;28;20510;-53
2021/03/25 10:23:32;;;;;;;12.48;6.43;;;;;;;12.88;32.96;96185.78;5014189;28;20048;-50
2021/03/25 10:26:02;;;;;;;14.65;7.65;;;;;;;12.91;32.63;96180.47;5009750;28;20055;-50
2021/03/25 10:28:31;;;;;;;12.85;8.00;;;;;;;13.23;32.46;96195.03;5026409;28;20529;-52
2021/03/25 10:31:07;;;;;;;12.05;7.38;;;;;;;13.26;32.33;96177.28;5016747;28;20203;-52
2021/03/25 10:33:36;;;;;;;12.40;7.78;;;;;;;13.40;32.20;96174.97;5011183;28;20050;-50
2021/03/25 10:36:06;;;;;;;16.85;7.47;;;;;;;13.56;32.03;96169.59;5007833;28;20388;-52
2021/03/25 10:38:48;;;;;;;9.73;6.78;;;;;;;13.35;32.55;96167.03;5011923;28;20099;-52
2021/03/25 10:41:21;;;;;;;14.95;7.20;;;;;;;13.46;32.38;96165.44;5012089;28;20064;-50
2021/03/25 10:43:51;;;;;;;9.80;6.50;;;;;;;13.39;32.37;96164.41;5011879;28;20046;-50
2021/03/25 10:46:37;;;;;;;10.40;6.68;;;;;;;13.19;32.09;96160.72;5006138;28;20527;-51
2021/03/25 10:49:16;;;;;;;13.60;7.07;;;;;;;13.51;32.05;96157.03;5011100;28;20112;-53
2021/03/25 10:51:45;;;;;;;11.40;6.50;;;;;;;13.39;31.12;96148.13;5011528;28;20066;-53
2021/03/25 10:54:27;;;;;;;13.00;6.72;;;;;;;13.79;31.69;96145.38;5014052;28;20172;-52
2021/03/25 10:57:14;;;;;;;13.35;6.72;;;;;;;13.68;31.56;96147.81;5009120;28;20145;-49
2021/03/25 11:00:00;;;;;;;11.20;6.70;;;;;;;13.77;31.88;96150.34;5012155;28;20060;-50
2021/03/25 11:02:36;;;;;;;12.70;7.53;;;;;;;13.97;31.47;96149.34;5012169;28;20488;-52
2021/03/25 11:05:24;;;;;;;12.40;7.40;;;;;;;14.43;30.87;96147.03;5006739;28;20418;-50
2021/03/25 11:07:56;;;;;;;13.68;7.78;;;;;;;14.90;31.03;96143.47;5007249;28;20270;-52
2021/03/25 11:10:30;;;;;;;12.07;6.88;;;;;;;14.41;30.80;96140.34;5011520;28;20095;-49
2021/03/25 11:13:04;;;;;;;10.25;6.40;;;;;;;14.13;31.37;96140.41;5012713;28;20108;-50
2021/03/25 11:15:42;;;;;;;11.90;7.10;;;;;;;14.33;31.46;96138.56;5010111;28;20066;-50
2021/03/25 11:18:29;;;;;;;16.58;7.57;;;;;;;14.86;31.75;96141.81;4995102;28;20520;-52
2021/03/25 11:20:56;;;;;;;13.23;6.97;;;;;;;15.12;30.23;96138.50;5005759;28;20049;-53
2021/03/25 11:23:26;;;;;;;13.50;7.68;;;;;;;15.19;29.83;96135.94;5009791;28;20151;-51
2021/03/25 11:25:57;;;;;;;;;;;;;;;15.57;29.72;96131.66;5012236;28;20132;-50
2021/03/25 11:28:26;;;;;;;13.18;7.32;;;;;;;15.65;29.01;96133.34;5006848;28;19933;-53
2021/03/25 11:30:56;;;;;;;13.70;7.07;;;;;;;15.41;29.34;96129.78;4992152;28;20050;-50
2021/03/25 11:33:23;;;;;;;13.90;6.88;;;;;;;15.30;29.45;96119.78;4992282;28;20054;-49
2021/03/25 11:35:51;;;;;;;11.18;6.70;;;;;;;15.49;29.68;96132.66;4991714;28;20050;-49
2021/03/25 11:38:24;;;;;;;10.70;6.40;;;;;;;16.25;28.27;96124.72;4991483;28;20078;-54
2021/03/25 11:40:53;;;;;;;13.55;7.38;;;;;;;16.66;27.21;96122.28;5007279;28;20069;-52
2021/03/25 11:43:25;;;;;;;14.82;7.05;;;;;;;16.25;28.18;96113.81;4991601;28;20054;-53
2021/03/25 11:45:54;;;;;;;10.90;6.07;;;;;;;16.79;28.03;96113.53;4991897;28;20491;-54
2021/03/25 11:48:32;;;;;;;10.75;6.22;;;;;;;16.97;27.04;96122.00;4992276;28;20051;-53
2021/03/25 11:51:17;;;;;;;9.77;5.95;;;;;;;17.64;26.27;96107.59;4992160;28;20050;-54
2021/03/25 11:53:48;;;;;;;12.18;5.75;;;;;;;17.61;26.38;96102.88;5004831;28;20388;-53
2021/03/25 11:56:35;;;;;;;10.50;6.78;;;;;;;16.89;27.45;96109.38;4991844;28;20416;-54
2021/03/25 11:59:24;;;;;;;11.02;6.18;;;;;;;17.09;27.30;96106.53;4995804;28;20099;-53
2021/03/25 12:02:25;;;;;;;10.93;5.68;;;;;;;16.52;27.64;96103.72;5013737;28;20057;-55
2021/03/25 12:04:54;;;;;;;10.90;5.50;;;;;;;16.49;28.65;96093.53;5011090;28;20053;-51
2021/03/25 12:07:24;;;;;;;9.52;5.88;;;;;;;16.77;28.04;96096.75;5008987;28;20420;-55
2021/03/25 12:10:15;;;;;;;10.05;5.78;;;;;;;16.53;27.71;96099.84;5007000;28;20068;-53
2021/03/25 12:12:43;;;;;;;14.77;6.60;;;;;;;16.95;27.36;96107.91;5015354;28;20042;-51
2021/03/25 12:15:20;;;;;;;12.35;5.72;;;;;;;17.97;26.38;96092.34;5009515;28;20053;-52
2021/03/25 12:17:54;;;;;;;11.10;5.50;;;;;;;18.03;26.09;96088.09;5007469;28;20045;-54
2021/03/25 12:20:25;;;;;;;8.63;5.70;;;;;;;17.73;26.05;96085.44;5018951;28;20073;-54
2021/03/25 12:23:01;;;;;;;11.85;6.20;;;;;;;18.05;25.41;96085.00;5010983;28;20054;-53